createdAt,value
2022-07-30T00:01:35.991Z,61.31
2022-07-30T00:04:04.018Z,62.21
2022-07-30T00:06:32.704Z,62.97
2022-07-30T00:08:59.978Z,63.05
2022-07-30T00:11:28.129Z,63.80
2022-07-30T00:13:56.028Z,63.24
2022-07-30T00:16:23.413Z,62.99
2022-07-30T00:18:50.547Z,61.97
2022-07-30T00:21:34.608Z,62.35
2022-07-30T00:24:04.609Z,61.54
2022-07-30T00:26:31.886Z,61.52
2022-07-30T00:28:58.962Z,61.82
2022-07-30T00:31:26.162Z,62.09
2022-07-30T00:33:53.231Z,62.23
2022-07-30T00:36:20.403Z,62.18
2022-07-30T00:38:47.523Z,63.04
2022-07-30T00:41:15.523Z,62.80
2022-07-30T00:43:43.717Z,62.10
2022-07-30T00:46:11.673Z,62.46
2022-07-30T00:48:38.787Z,62.12
2022-07-30T00:51:05.959Z,63.65
2022-07-30T00:53:34.704Z,63.80
2022-07-30T00:56:03.023Z,63.61
2022-07-30T00:58:31.031Z,64.33
2022-07-30T01:00:58.374Z,63.92
2022-07-30T01:03:25.352Z,63.98
2022-07-30T01:05:52.629Z,63.47
2022-07-30T01:08:19.628Z,63.77
2022-07-30T01:10:46.828Z,63.40
2022-07-30T01:13:14.303Z,63.22
2022-07-30T01:15:42.015Z,63.02
2022-07-30T01:18:12.774Z,63.41
2022-07-30T01:20:52.124Z,62.85
2022-07-30T01:23:32.051Z,63.40
2022-07-30T01:26:02.604Z,64.94
2022-07-30T01:28:35.508Z,64.94
2022-07-30T01:31:05.918Z,64.34
2022-07-30T01:33:37.652Z,64.70
2022-07-30T01:36:08.185Z,63.99
2022-07-30T01:38:38.673Z,63.54
2022-07-30T01:41:07.047Z,64.35
2022-07-30T01:43:36.774Z,63.86
2022-07-30T01:46:06.123Z,63.45
2022-07-30T01:48:40.612Z,63.89
2022-07-30T01:51:09.052Z,63.47
2022-07-30T01:53:41.684Z,62.97
2022-07-30T01:56:12.836Z,63.72
2022-07-30T01:58:46.586Z,63.25
2022-07-30T02:01:13.857Z,63.62
2022-07-30T02:03:42.666Z,63.26
2022-07-30T02:06:19.690Z,63.36
2022-07-30T02:08:58.090Z,63.08
2022-07-30T02:11:44.065Z,63.28
2022-07-30T02:14:26.879Z,63.65
2022-07-30T02:16:59.196Z,63.00
2022-07-30T02:19:36.783Z,63.32
2022-07-30T02:22:16.112Z,63.12
2022-07-30T02:24:44.798Z,63.50
2022-07-30T02:27:38.311Z,63.47
2022-07-30T02:30:06.646Z,63.22
2022-07-30T02:32:42.577Z,63.11
2022-07-30T02:35:19.870Z,64.21
2022-07-30T02:37:50.878Z,63.75
2022-07-30T02:40:22.780Z,64.37
2022-07-30T02:42:53.275Z,63.50
2022-07-30T02:45:22.603Z,63.26
2022-07-30T02:48:04.899Z,63.46
2022-07-30T02:50:32.671Z,62.83
2022-07-30T02:53:02.714Z,63.71
2022-07-30T02:55:33.477Z,63.62
2022-07-30T02:58:04.202Z,63.50
2022-07-30T03:00:32.253Z,63.13
2022-07-30T03:03:00.551Z,63.01
2022-07-30T03:05:29.410Z,62.43
2022-07-30T03:07:59.848Z,62.57
2022-07-30T03:10:28.842Z,62.86
2022-07-30T03:12:57.202Z,62.25
2022-07-30T03:15:24.576Z,62.97
2022-07-30T03:17:55.569Z,63.46
2022-07-30T03:20:29.646Z,63.06
2022-07-30T03:23:00.077Z,62.89
2022-07-30T03:25:28.902Z,63.39
2022-07-30T03:28:15.570Z,62.50
2022-07-30T03:30:44.171Z,62.04
2022-07-30T03:33:13.139Z,62.13
2022-07-30T03:35:43.674Z,62.26
2022-07-30T03:38:15.632Z,62.72
2022-07-30T03:40:44.391Z,62.77
2022-07-30T03:43:18.305Z,62.88
2022-07-30T03:46:03.438Z,63.42
2022-07-30T03:48:31.579Z,63.42
2022-07-30T03:51:01.435Z,63.82
2022-07-30T03:53:29.361Z,62.77
2022-07-30T03:55:56.887Z,62.05
2022-07-30T03:58:24.128Z,61.93
2022-07-30T04:00:51.962Z,62.25
2022-07-30T04:03:27.768Z,62.44
2022-07-30T04:05:55.121Z,62.14
2022-07-30T04:08:22.643Z,62.01
2022-07-30T04:10:51.450Z,62.35
2022-07-30T04:13:18.755Z,62.36
2022-07-30T04:16:39.906Z,60.95
2022-07-30T04:19:12.562Z,61.24
2022-07-30T04:21:41.975Z,60.79
2022-07-30T04:24:11.379Z,60.49
2022-07-30T04:26:39.210Z,60.36
2022-07-30T04:29:07.602Z,59.63
2022-07-30T04:31:40.690Z,59.54
2022-07-30T04:34:08.573Z,59.37
2022-07-30T04:36:38.880Z,58.64
2022-07-30T04:39:06.186Z,58.71
2022-07-30T04:41:48.720Z,58.29
2022-07-30T04:44:19.106Z,57.40
2022-07-30T04:46:47.956Z,57.38
2022-07-30T04:49:18.322Z,56.94
2022-07-30T04:51:46.879Z,56.93
2022-07-30T04:54:16.362Z,56.25
2022-07-30T04:56:52.626Z,56.20
2022-07-30T04:59:25.127Z,55.40
2022-07-30T05:01:53.810Z,55.61
2022-07-30T05:04:24.705Z,56.42
2022-07-30T05:06:53.772Z,55.42
2022-07-30T05:09:22.375Z,55.35
2022-07-30T05:11:53.900Z,55.18
2022-07-30T05:14:22.380Z,54.88
2022-07-30T05:16:50.720Z,55.04
2022-07-30T05:19:19.896Z,54.21
2022-07-30T05:21:46.948Z,54.46
2022-07-30T05:24:14.581Z,55.13
2022-07-30T05:26:42.333Z,53.15
2022-07-30T05:29:09.739Z,52.82
2022-07-30T05:31:47.351Z,53.29
2022-07-30T05:34:15.617Z,52.54
2022-07-30T05:36:44.675Z,52.33
2022-07-30T05:39:12.020Z,51.94
2022-07-30T05:41:39.115Z,52.10
2022-07-30T05:44:06.409Z,51.37
2022-07-30T05:46:33.905Z,50.86
2022-07-30T05:49:01.147Z,51.06
2022-07-30T05:51:29.461Z,49.58
2022-07-30T05:53:56.826Z,49.32
2022-07-30T05:56:24.049Z,49.47
2022-07-30T05:58:51.161Z,48.59
2022-07-30T06:01:18.383Z,47.29
2022-07-30T06:03:45.419Z,46.70
2022-07-30T06:06:12.924Z,45.97
2022-07-30T06:08:40.208Z,44.83
2022-07-30T06:11:08.944Z,44.33
2022-07-30T06:13:37.587Z,43.54
2022-07-30T06:16:05.383Z,42.68
2022-07-30T06:18:32.935Z,43.16
2022-07-30T06:21:00.223Z,42.75
2022-07-30T06:23:27.471Z,42.82
2022-07-30T06:25:54.663Z,42.26
2022-07-30T06:28:37.061Z,42.59
2022-07-30T06:31:06.666Z,43.09
2022-07-30T06:33:34.547Z,43.54
2022-07-30T06:36:01.931Z,43.11
2022-07-30T06:38:29.255Z,44.51
2022-07-30T06:41:02.026Z,44.30
2022-07-30T06:43:33.412Z,45.00
2022-07-30T06:46:01.149Z,44.01
2022-07-30T06:48:31.790Z,43.65
2022-07-30T06:50:58.989Z,43.14
2022-07-30T06:53:26.044Z,43.53
2022-07-30T06:55:56.806Z,44.06
2022-07-30T06:58:25.951Z,43.44
2022-07-30T07:00:53.503Z,43.20
2022-07-30T07:03:21.429Z,42.73
2022-07-30T07:05:48.733Z,43.36
2022-07-30T07:08:15.812Z,43.69
2022-07-30T07:10:43.223Z,43.90
2022-07-30T07:13:10.316Z,42.58
2022-07-30T07:15:37.782Z,42.54
2022-07-30T07:18:06.487Z,42.64
2022-07-30T07:20:35.018Z,42.40
2022-07-30T07:23:08.871Z,41.92
2022-07-30T07:25:36.785Z,42.14
2022-07-30T07:28:11.771Z,41.57
2022-07-30T07:30:44.271Z,41.36
2022-07-30T07:33:13.160Z,41.77
2022-07-30T07:35:49.239Z,40.93
2022-07-30T07:38:18.579Z,40.80
2022-07-30T07:40:47.401Z,41.18
2022-07-30T07:43:15.746Z,40.18
2022-07-30T07:45:44.309Z,38.90
2022-07-30T07:48:12.183Z,38.86
2022-07-30T07:50:39.981Z,38.97
2022-07-30T07:53:07.337Z,37.68
2022-07-30T07:55:34.449Z,37.90
2022-07-30T07:58:02.178Z,37.94
2022-07-30T08:00:29.578Z,36.66
2022-07-30T08:02:56.702Z,36.29
2022-07-30T08:05:24.207Z,36.20
2022-07-30T08:07:51.311Z,36.05
2022-07-30T08:10:19.154Z,35.38
2022-07-30T08:12:46.169Z,33.43
2022-07-30T08:15:13.638Z,33.16
2022-07-30T08:17:45.459Z,32.72
2022-07-30T08:20:14.478Z,32.53
2022-07-30T08:22:42.048Z,33.21
2022-07-30T08:25:10.080Z,31.70
2022-07-30T08:27:37.354Z,32.52
2022-07-30T08:30:06.483Z,31.87
2022-07-30T08:32:33.984Z,31.64
2022-07-30T08:35:01.435Z,30.69
2022-07-30T08:37:29.121Z,30.12
2022-07-30T08:39:56.520Z,28.41
2022-07-30T08:42:24.569Z,28.95
2022-07-30T08:44:54.769Z,28.52
2022-07-30T08:47:31.211Z,28.02
2022-07-30T08:50:04.660Z,29.32
2022-07-30T08:52:38.725Z,28.91
2022-07-30T08:55:06.786Z,28.12
2022-07-30T08:57:37.870Z,27.66
2022-07-30T09:00:07.222Z,28.21
2022-07-30T09:02:34.758Z,28.89
2022-07-30T09:05:05.595Z,29.28
2022-07-30T09:07:36.547Z,28.44
2022-07-30T09:10:08.969Z,28.49
2022-07-30T09:12:42.956Z,28.35
2022-07-30T09:15:20.494Z,28.59
2022-07-30T09:18:00.719Z,28.48
2022-07-30T09:20:35.015Z,28.56
2022-07-30T09:23:05.642Z,28.27
2022-07-30T09:25:43.848Z,28.28
2022-07-30T09:28:16.314Z,28.28
2022-07-30T09:30:48.286Z,28.29
2022-07-30T09:33:30.554Z,28.66
2022-07-30T09:35:57.727Z,28.25
2022-07-30T09:38:26.228Z,27.89
2022-07-30T09:40:57.795Z,28.39
2022-07-30T09:43:28.043Z,28.15
2022-07-30T09:45:58.927Z,27.88
2022-07-30T09:48:28.392Z,28.08
2022-07-30T09:50:57.386Z,27.00
2022-07-30T09:53:25.272Z,27.05
2022-07-30T09:55:52.746Z,26.41
2022-07-30T09:58:27.047Z,27.80
2022-07-30T10:01:01.468Z,27.00
2022-07-30T10:03:33.711Z,27.45
2022-07-30T10:06:11.669Z,27.50
2022-07-30T10:08:48.124Z,27.19
2022-07-30T10:11:23.596Z,28.07
2022-07-30T10:13:57.899Z,27.81
2022-07-30T10:16:29.723Z,27.96
2022-07-30T10:19:00.250Z,28.17
2022-07-30T10:21:29.104Z,27.82
2022-07-30T10:24:00.692Z,27.11
2022-07-30T10:26:30.430Z,27.81
2022-07-30T10:28:59.282Z,28.47
2022-07-30T10:31:48.443Z,27.56
2022-07-30T10:34:23.792Z,27.87
2022-07-30T10:37:00.727Z,27.48
2022-07-30T10:39:39.541Z,27.21
2022-07-30T10:42:46.319Z,26.87
2022-07-30T10:45:26.275Z,26.96
2022-07-30T10:47:55.392Z,27.11
2022-07-30T10:50:27.804Z,27.24
2022-07-30T10:53:01.320Z,27.46
2022-07-30T10:55:38.774Z,27.80
2022-07-30T10:58:14.359Z,27.29
2022-07-30T11:00:51.954Z,27.00
2022-07-30T11:03:38.786Z,26.92
2022-07-30T11:06:15.454Z,26.68
2022-07-30T11:08:48.626Z,26.53
2022-07-30T11:12:01.431Z,26.33
2022-07-30T11:14:13.010Z,26.07
2022-07-30T11:16:40.223Z,26.06
2022-07-30T11:19:55.560Z,25.97
2022-07-30T11:22:31.435Z,26.23
2022-07-30T11:25:00.457Z,25.94
2022-07-30T11:27:38.519Z,26.18
2022-07-30T11:30:18.162Z,25.38
2022-07-30T11:32:57.175Z,25.85
2022-07-30T11:35:34.374Z,25.66
2022-07-30T11:38:19.748Z,25.56
2022-07-30T11:40:49.439Z,25.57
2022-07-30T11:43:35.765Z,26.89
2022-07-30T11:46:10.993Z,26.35
2022-07-30T11:49:05.770Z,26.05
2022-07-30T11:51:46.745Z,26.46
2022-07-30T11:54:15.478Z,25.90
2022-07-30T11:57:02.326Z,26.38
2022-07-30T11:59:31.564Z,26.33
2022-07-30T12:02:01.746Z,26.31
2022-07-30T12:04:29.803Z,27.91
2022-07-30T12:07:01.810Z,27.09
2022-07-30T12:09:29.376Z,27.60
2022-07-30T12:11:57.599Z,27.76
2022-07-30T12:14:25.074Z,27.57
2022-07-30T12:16:54.122Z,27.59
2022-07-30T12:19:21.781Z,28.29
2022-07-30T12:21:53.781Z,30.69
2022-07-30T12:24:26.754Z,30.62
2022-07-30T12:27:06.113Z,31.21
2022-07-30T12:29:37.529Z,32.09
2022-07-30T12:32:05.198Z,31.14
2022-07-30T12:34:33.860Z,30.73
2022-07-30T12:37:10.167Z,30.77
2022-07-30T12:39:37.595Z,31.17
2022-07-30T12:42:05.051Z,31.17
2022-07-30T12:44:46.032Z,31.79
2022-07-30T12:47:26.212Z,32.11
2022-07-30T12:49:55.179Z,33.84
2022-07-30T12:52:31.773Z,31.67
2022-07-30T12:55:09.643Z,31.36
2022-07-30T12:58:07.030Z,30.92
2022-07-30T13:00:52.725Z,31.62
2022-07-30T13:03:24.527Z,33.46
2022-07-30T13:05:55.347Z,33.50
2022-07-30T13:08:57.640Z,34.70
2022-07-30T13:11:48.660Z,34.19
2022-07-30T13:14:17.485Z,34.13
2022-07-30T13:16:45.668Z,34.47
2022-07-30T13:19:13.203Z,34.61
2022-07-30T13:21:49.883Z,35.17
2022-07-30T13:24:18.974Z,34.69
2022-07-30T13:26:47.036Z,34.34
2022-07-30T13:29:14.484Z,33.54
2022-07-30T13:31:42.594Z,34.37
2022-07-30T13:34:12.129Z,34.25
2022-07-30T13:36:39.762Z,34.68
2022-07-30T13:39:07.080Z,35.08
2022-07-30T13:41:36.220Z,35.27
2022-07-30T13:44:04.533Z,34.95
2022-07-30T13:46:31.755Z,36.01
2022-07-30T13:48:59.325Z,35.43
2022-07-30T13:51:26.572Z,36.12
2022-07-30T13:53:56.998Z,35.19
2022-07-30T13:56:24.152Z,35.67
2022-07-30T13:58:51.309Z,35.80
2022-07-30T14:01:19.804Z,35.33
2022-07-30T14:03:50.516Z,35.37
2022-07-30T14:06:19.551Z,35.22
2022-07-30T14:08:48.918Z,35.21
2022-07-30T14:11:17.943Z,34.88
2022-07-30T14:13:46.000Z,34.70
2022-07-30T14:16:42.348Z,34.97
2022-07-30T14:19:01.364Z,36.03
2022-07-30T14:21:28.652Z,36.00
2022-07-30T14:23:56.332Z,36.76
2022-07-30T14:26:23.464Z,36.62
2022-07-30T14:28:51.007Z,36.44
2022-07-30T14:31:18.139Z,37.18
2022-07-30T14:33:45.339Z,36.50
2022-07-30T14:36:12.851Z,36.60
2022-07-30T14:38:40.023Z,36.00
2022-07-30T14:41:09.005Z,36.32
2022-07-30T14:43:36.341Z,35.56
2022-07-30T14:46:03.859Z,35.78
2022-07-30T14:48:32.196Z,35.53
2022-07-30T14:51:15.849Z,35.70
2022-07-30T14:53:47.265Z,34.98
2022-07-30T14:56:14.706Z,34.62
2022-07-30T14:58:45.688Z,35.06
2022-07-30T15:01:16.647Z,36.41
2022-07-30T15:03:45.874Z,35.86
2022-07-30T15:06:15.170Z,36.87
2022-07-30T15:08:43.243Z,36.34
2022-07-30T15:11:10.321Z,36.11
2022-07-30T15:13:49.733Z,35.88
2022-07-30T15:16:19.101Z,36.94
2022-07-30T15:18:46.464Z,37.43
2022-07-30T15:21:13.771Z,37.79
2022-07-30T15:23:41.016Z,37.57
2022-07-30T15:26:08.411Z,38.99
2022-07-30T15:28:36.930Z,39.16
2022-07-30T15:31:04.719Z,38.51
2022-07-30T15:33:36.649Z,38.73
2022-07-30T15:36:04.604Z,38.63
2022-07-30T15:38:31.805Z,38.64
2022-07-30T15:41:01.785Z,39.52
2022-07-30T15:43:29.058Z,39.75
2022-07-30T15:45:56.707Z,39.48
2022-07-30T15:48:27.844Z,40.84
2022-07-30T15:51:02.796Z,40.82
2022-07-30T15:53:31.759Z,39.83
2022-07-30T15:56:00.470Z,40.53
2022-07-30T15:58:28.098Z,41.39
2022-07-30T16:00:55.377Z,42.11
2022-07-30T16:03:22.804Z,43.02
2022-07-30T16:05:51.306Z,43.51
2022-07-30T16:08:21.554Z,43.90
2022-07-30T16:10:49.857Z,45.19
2022-07-30T16:13:17.314Z,44.93
2022-07-30T16:15:45.436Z,45.46
2022-07-30T16:18:12.771Z,45.15
2022-07-30T16:20:40.088Z,45.28
2022-07-30T16:23:12.675Z,44.97
2022-07-30T16:25:42.421Z,44.84
2022-07-30T16:28:09.565Z,44.79
2022-07-30T16:30:50.570Z,44.35
2022-07-30T16:33:20.861Z,46.24
2022-07-30T16:35:56.757Z,45.71
2022-07-30T16:38:24.106Z,46.02
2022-07-30T16:40:54.496Z,46.76
2022-07-30T16:43:21.552Z,46.61
2022-07-30T16:45:49.161Z,45.37
2022-07-30T16:48:16.767Z,45.03
2022-07-30T16:50:44.727Z,45.21
2022-07-30T16:53:14.358Z,46.64
2022-07-30T16:55:43.488Z,45.17
2022-07-30T16:58:11.441Z,45.51
2022-07-30T17:00:38.947Z,45.71
2022-07-30T17:03:12.018Z,45.38
2022-07-30T17:05:47.641Z,45.82
2022-07-30T17:08:15.106Z,44.80
2022-07-30T17:10:46.197Z,46.28
2022-07-30T17:13:15.269Z,44.54
2022-07-30T17:15:43.155Z,46.24
2022-07-30T17:18:12.942Z,45.08
2022-07-30T17:20:40.173Z,44.95
2022-07-30T17:23:08.063Z,44.47
2022-07-30T17:25:35.382Z,45.89
2022-07-30T17:28:02.601Z,45.60
2022-07-30T17:30:32.892Z,45.57
2022-07-30T17:33:01.084Z,47.43
2022-07-30T17:35:28.357Z,46.41
2022-07-30T17:37:55.663Z,47.40
2022-07-30T17:40:29.254Z,47.97
2022-07-30T17:43:06.094Z,47.66
2022-07-30T17:45:36.293Z,48.17
2022-07-30T17:48:05.343Z,49.81
2022-07-30T17:50:35.787Z,49.59
2022-07-30T17:53:05.928Z,50.39
2022-07-30T17:55:36.466Z,51.24
2022-07-30T17:58:05.247Z,52.03
2022-07-30T18:00:34.869Z,52.04
2022-07-30T18:03:03.792Z,52.58
2022-07-30T18:05:32.051Z,52.28
2022-07-30T18:07:59.403Z,53.36
2022-07-30T18:10:26.541Z,53.02
2022-07-30T18:12:53.699Z,53.76
2022-07-30T18:15:21.055Z,54.52
2022-07-30T18:17:48.754Z,54.17
2022-07-30T18:20:16.192Z,55.43
2022-07-30T18:25:18.031Z,55.55
2022-07-30T18:27:48.033Z,56.39
2022-07-30T18:30:15.567Z,55.94
2022-07-30T18:32:43.349Z,57.33
2022-07-30T18:35:14.539Z,56.91
2022-07-30T18:37:45.654Z,59.61
2022-07-30T18:40:18.561Z,58.76
2022-07-30T18:42:49.589Z,58.51
2022-07-30T18:45:16.968Z,58.23
2022-07-30T18:47:45.714Z,57.40
2022-07-30T18:50:15.741Z,59.87
2022-07-30T18:52:43.353Z,60.35
2022-07-30T18:55:12.445Z,62.15
2022-07-30T18:57:41.247Z,61.03
2022-07-30T19:00:35.119Z,62.35
2022-07-30T19:03:02.938Z,62.09
2022-07-30T19:05:31.310Z,61.44
2022-07-30T19:07:59.142Z,62.39
2022-07-30T19:10:27.703Z,62.95
2022-07-30T19:12:56.397Z,63.14
2022-07-30T19:15:26.720Z,62.68
2022-07-30T19:17:58.229Z,63.24
2022-07-30T19:20:26.700Z,64.17
2022-07-30T19:23:06.941Z,63.87
2022-07-30T19:25:54.517Z,63.72
2022-07-30T19:28:24.706Z,63.08
2022-07-30T19:30:51.744Z,62.92
2022-07-30T19:33:18.818Z,63.18
2022-07-30T19:35:48.316Z,64.71
2022-07-30T19:38:22.051Z,64.20
2022-07-30T19:40:51.845Z,65.61
2022-07-30T19:43:24.010Z,65.53
2022-07-30T19:45:51.812Z,65.95
2022-07-30T19:48:29.397Z,65.36
2022-07-30T19:51:00.784Z,66.06
2022-07-30T19:53:31.609Z,65.21
2022-07-30T19:56:03.440Z,66.98
2022-07-30T19:58:32.229Z,65.96
2022-07-30T20:01:00.314Z,65.01
2022-07-30T20:03:31.608Z,65.59
2022-07-30T20:06:00.384Z,66.06
2022-07-30T20:08:28.515Z,66.21
2022-07-30T20:10:57.572Z,65.43
2022-07-30T20:13:44.686Z,65.49
2022-07-30T20:16:15.905Z,67.13
2022-07-30T20:18:46.173Z,67.76
2022-07-30T20:21:16.626Z,67.68
2022-07-30T20:23:45.080Z,67.35
2022-07-30T20:26:17.123Z,66.77
2022-07-30T20:28:52.622Z,67.72
2022-07-30T20:31:21.179Z,68.84
2022-07-30T20:33:51.929Z,68.26
2022-07-30T20:36:20.028Z,67.66
2022-07-30T20:38:50.706Z,68.84
2022-07-30T20:41:20.917Z,67.65
2022-07-30T20:43:52.501Z,68.06
2022-07-30T20:46:39.782Z,68.04
2022-07-30T20:49:07.489Z,68.02
2022-07-30T20:51:37.944Z,68.28
2022-07-30T20:54:29.459Z,67.79
2022-07-30T20:56:57.477Z,66.85
2022-07-30T20:59:26.071Z,67.32
2022-07-30T21:02:00.084Z,67.35
2022-07-30T21:04:28.290Z,66.77
2022-07-30T21:06:55.449Z,66.81
2022-07-30T21:09:52.440Z,66.39
2022-07-30T21:12:19.824Z,65.50
2022-07-30T21:15:00.322Z,65.06
2022-07-30T21:17:28.311Z,65.24
2022-07-30T21:19:55.465Z,64.39
2022-07-30T21:22:22.827Z,64.76
2022-07-30T21:24:51.180Z,64.45
2022-07-30T21:27:19.004Z,63.48
2022-07-30T21:29:46.451Z,63.92
2022-07-30T21:32:14.878Z,64.60
2022-07-30T21:34:46.621Z,64.70
2022-07-30T21:37:15.633Z,64.57
2022-07-30T21:39:46.357Z,65.60
2022-07-30T21:42:14.420Z,64.59
2022-07-30T21:44:41.568Z,65.28
2022-07-30T21:47:10.290Z,65.18
2022-07-30T21:49:39.092Z,64.55
2022-07-30T21:52:08.844Z,65.47
2022-07-30T21:54:48.375Z,64.87
2022-07-30T21:57:26.301Z,64.38
2022-07-30T21:59:58.233Z,64.32
2022-07-30T22:02:25.587Z,64.26
2022-07-30T22:04:55.138Z,64.08
2022-07-30T22:07:22.429Z,64.81
2022-07-30T22:09:49.646Z,63.94
2022-07-30T22:12:18.013Z,65.87
2022-07-30T22:14:49.470Z,65.71
2022-07-30T22:17:23.633Z,66.48
2022-07-30T22:20:08.871Z,66.29
2022-07-30T22:22:39.921Z,65.90
2022-07-30T22:25:09.874Z,66.94
2022-07-30T22:27:56.756Z,66.55
2022-07-30T22:30:27.360Z,68.64
2022-07-30T22:33:30.515Z,67.41
2022-07-30T22:35:59.151Z,67.40
2022-07-30T22:38:27.281Z,67.49
2022-07-30T22:40:54.554Z,67.38
2022-07-30T22:43:24.358Z,67.02
2022-07-30T22:46:00.594Z,67.35
2022-07-30T22:48:27.823Z,67.47
2022-07-30T22:50:58.744Z,67.51
2022-07-30T22:53:56.813Z,67.20
2022-07-30T22:56:16.412Z,66.55
2022-07-30T22:58:44.345Z,67.74
2022-07-30T23:01:11.445Z,68.09
2022-07-30T23:03:38.548Z,68.45
2022-07-30T23:06:06.536Z,67.48
2022-07-30T23:08:41.747Z,67.39
2022-07-30T23:11:09.502Z,67.67
2022-07-30T23:13:38.661Z,67.15
2022-07-30T23:16:06.827Z,67.02
2022-07-30T23:18:37.376Z,67.33
2022-07-30T23:21:05.006Z,67.41
2022-07-30T23:23:33.799Z,68.09
2022-07-30T23:26:05.201Z,68.31
2022-07-30T23:28:32.863Z,68.86
2022-07-30T23:31:00.303Z,68.13
2022-07-30T23:33:27.492Z,68.02
2022-07-30T23:35:54.809Z,67.27
2022-07-30T23:38:22.339Z,67.12
2022-07-30T23:40:49.453Z,67.14
2022-07-30T23:43:17.207Z,66.69
2022-07-30T23:45:44.598Z,67.07
2022-07-30T23:48:12.128Z,66.12
2022-07-30T23:50:39.176Z,66.40
2022-07-30T23:53:06.455Z,66.83
2022-07-30T23:55:33.611Z,66.52
2022-07-30T23:58:04.789Z,66.92
